Time;durP1;ratioP1;P1;durP2;ratioP2;P2;SDS_P1;SDS_P2;PMS_P1;PMS_P2;Temp;Humidity;BMP_temperature;BMP_pressure;BME280_temperature;BME280_humidity;BME280_pressure;Samples;Min_cycle;Max_cycle;Signal;HPM_P1;HPM_P2
2023/12/16 00:02:02;;;;;;;;;;;16.90;54.20;;;;;;5026220;28;43601;-80
2023/12/16 00:04:28;;;;;;;;;;;17.00;54.30;;;;;;5026083;28;42898;-82
2023/12/16 00:06:53;;;;;;;;;;;16.90;53.50;;;;;;5026657;28;43005;-87
2023/12/16 00:09:19;;;;;;;;;;;16.80;53.50;;;;;;5027325;28;42816;-82
2023/12/16 00:11:44;;;;;;;;;;;17.00;53.50;;;;;;5026485;28;43404;-86
2023/12/16 00:14:10;;;;;;;;;;;16.80;53.40;;;;;;5008687;28;42752;-82
2023/12/16 00:16:35;;;;;;;;;;;17.00;53.50;;;;;;5025250;28;43026;-87
2023/12/16 00:19:01;;;;;;;;;;;16.90;53.50;;;;;;5027168;28;42843;-86
2023/12/16 00:21:26;;;;;;;;;;;17.00;54.10;;;;;;5027097;28;42759;-85
2023/12/16 00:23:52;;;;;;;;;;;17.20;53.40;;;;;;5026118;28;43165;-81
2023/12/16 00:26:18;;;;;;;;;;;17.10;53.40;;;;;;5026176;28;44046;-80
2023/12/16 00:28:43;;;;;;;;;;;17.10;54.00;;;;;;5025788;28;42917;-83
2023/12/16 00:31:09;;;;;;;;;;;17.00;54.10;;;;;;5026031;28;43024;-81
2023/12/16 00:33:35;;;;;;;;;;;17.00;54.00;;;;;;5026187;28;42862;-83
2023/12/16 00:36:00;;;;;;;;;;;17.00;53.40;;;;;;5026190;28;42941;-82
2023/12/16 00:38:25;;;;;;;;;;;17.00;53.40;;;;;;5026147;28;43007;-86
2023/12/16 00:40:51;;;;;;;;;;;17.00;54.00;;;;;;5026618;28;42926;-84
2023/12/16 00:43:16;;;;;;;;;;;17.00;54.10;;;;;;5008597;28;43037;-83
2023/12/16 00:45:42;;;;;;;;;;;16.90;53.30;;;;;;5026359;28;43118;-82
2023/12/16 00:48:07;;;;;;;;;;;17.10;53.40;;;;;;5026323;28;42862;-86
2023/12/16 00:50:33;;;;;;;;;;;17.40;53.60;;;;;;5026828;28;42960;-85
2023/12/16 00:52:59;;;;;;;;;;;17.00;53.30;;;;;;5027342;28;42964;-80
2023/12/16 00:55:33;;;;;;;;;;;17.00;53.30;;;;;;5014811;28;44646;-80
2023/12/16 00:57:59;;;;;;;;;;;17.00;53.30;;;;;;5035305;28;42966;-80
2023/12/16 01:00:25;;;;;;;;;;;17.10;53.20;;;;;;5029956;28;44121;-79
2023/12/16 01:02:50;;;;;;;;;;;17.10;53.30;;;;;;5025486;28;43112;-80
2023/12/16 01:05:16;;;;;;;;;;;17.10;53.30;;;;;;5025954;28;43015;-79
2023/12/16 01:07:41;;;;;;;;;;;17.00;54.00;;;;;;5026841;28;42842;-79
2023/12/16 01:10:07;;;;;;;;;;;17.10;53.30;;;;;;5025933;28;42963;-79
2023/12/16 01:12:32;;;;;;;;;;;17.10;53.30;;;;;;5025390;28;43358;-80
2023/12/16 01:14:58;;;;;;;;;;;16.90;53.20;;;;;;5025474;28;43023;-80
2023/12/16 01:17:23;;;;;;;;;;;17.00;53.20;;;;;;5025053;28;43119;-80
2023/12/16 01:19:49;;;;;;;;;;;16.90;53.20;;;;;;5025579;28;43341;-81
2023/12/16 01:22:14;;;;;;;;;;;17.00;53.80;;;;;;5025345;28;42886;-80
2023/12/16 01:24:40;;;;;;;;;;;17.00;53.80;;;;;;5007869;28;43303;-80
2023/12/16 01:27:05;;;;;;;;;;;17.00;53.70;;;;;;5025984;28;42863;-81
2023/12/16 01:29:31;;;;;;;;;;;17.00;53.90;;;;;;5025936;28;42911;-80
2023/12/16 01:31:56;;;;;;;;;;;17.10;53.20;;;;;;5007147;28;43057;-80
2023/12/16 01:34:22;;;;;;;;;;;17.00;53.10;;;;;;5025674;28;43000;-80
2023/12/16 01:36:47;;;;;;;;;;;17.00;53.60;;;;;;5025840;28;43087;-81
2023/12/16 01:39:13;;;;;;;;;;;16.90;53.10;;;;;;5025280;28;43842;-80
2023/12/16 01:41:38;;;;;;;;;;;16.80;53.60;;;;;;5025422;28;43003;-80
2023/12/16 01:44:04;;;;;;;;;;;17.00;53.60;;;;;;5025642;28;42921;-80
2023/12/16 01:46:30;;;;;;;;;;;17.20;53.20;;;;;;5008176;28;43086;-80
2023/12/16 01:48:56;;;;;;;;;;;17.00;53.70;;;;;;5025593;28;42912;-79
2023/12/16 01:51:21;;;;;;;;;;;17.00;53.70;;;;;;5025106;28;42829;-79
2023/12/16 01:53:47;;;;;;;;;;;16.90;53.00;;;;;;5023498;28;42832;-80
2023/12/16 01:56:13;;;;;;;;;;;;;;;;;;5025449;28;42860;-80
2023/12/16 01:58:38;;;;;;;;;;;17.00;52.60;;;;;;5025440;28;43767;-80
2023/12/16 02:01:04;;;;;;;;;;;17.10;53.10;;;;;;5025288;28;42830;-79
2023/12/16 02:03:30;;;;;;;;;;;17.00;53.70;;;;;;5025151;28;43004;-80
2023/12/16 02:05:57;;;;;;;;;;;17.00;53.60;;;;;;5025427;28;42893;-80
2023/12/16 02:08:22;;;;;;;;;;;17.00;53.50;;;;;;5025097;28;43044;-80
2023/12/16 02:10:48;;;;;;;;;;;17.00;53.70;;;;;;5025034;28;42945;-80
2023/12/16 02:13:13;;;;;;;;;;;17.00;53.60;;;;;;5024830;28;42951;-81
2023/12/16 02:15:39;;;;;;;;;;;17.00;53.10;;;;;;5025313;28;42897;-80
2023/12/16 02:18:04;;;;;;;;;;;16.80;53.50;;;;;;5024755;28;42851;-80
2023/12/16 02:20:30;;;;;;;;;;;16.90;53.60;;;;;;5025543;28;42934;-79
2023/12/16 02:22:56;;;;;;;;;;;17.00;53.10;;;;;;5024574;28;42886;-80
2023/12/16 02:25:21;;;;;;;;;;;17.00;53.10;;;;;;5017049;28;43579;-80
2023/12/16 02:27:47;;;;;;;;;;;16.90;53.70;;;;;;5024896;28;42826;-79
2023/12/16 02:30:12;;;;;;;;;;;17.00;53.10;;;;;;5025221;28;43128;-80
2023/12/16 02:32:38;;;;;;;;;;;16.90;53.00;;;;;;5006284;28;44594;-86
2023/12/16 02:35:04;;;;;;;;;;;16.90;53.00;;;;;;5023104;28;42953;-82
2023/12/16 02:37:30;;;;;;;;;;;17.00;53.40;;;;;;5024990;28;43038;-82
2023/12/16 02:39:55;;;;;;;;;;;17.00;53.60;;;;;;5024602;28;43029;-87
2023/12/16 02:42:21;;;;;;;;;;;17.00;53.70;;;;;;5024977;28;43332;-84
2023/12/16 02:44:46;;;;;;;;;;;16.80;53.50;;;;;;5024976;28;42929;-86
2023/12/16 02:47:12;;;;;;;;;;;16.90;53.60;;;;;;5024161;28;43589;-85
2023/12/16 02:49:37;;;;;;;;;;;17.00;53.10;;;;;;5024271;28;42969;-86
2023/12/16 02:52:03;;;;;;;;;;;17.00;53.00;;;;;;5023902;28;44015;-81
2023/12/16 02:54:29;;;;;;;;;;;16.90;53.60;;;;;;5024702;28;42808;-82
2023/12/16 02:56:54;;;;;;;;;;;16.90;53.50;;;;;;5006348;28;43474;-83
2023/12/16 02:59:20;;;;;;;;;;;17.00;53.20;;;;;;5004445;28;42835;-83
2023/12/16 03:01:46;;;;;;;;;;;17.00;53.10;;;;;;5004320;28;42902;-83
2023/12/16 03:04:11;;;;;;;;;;;17.00;53.10;;;;;;5004327;28;42999;-82
2023/12/16 03:06:43;;;;;;;;;;;16.90;53.00;;;;;;5004459;28;42907;-83
2023/12/16 03:09:09;;;;;;;;;;;16.80;52.90;;;;;;5004729;28;42985;-83
2023/12/16 03:11:34;;;;;;;;;;;17.00;53.10;;;;;;5010156;28;42915;-80
2023/12/16 03:14:00;;;;;;;;;;;17.00;53.10;;;;;;5008992;28;42926;-81
2023/12/16 03:16:25;;;;;;;;;;;16.90;53.10;;;;;;5004904;28;43503;-80
2023/12/16 03:18:51;;;;;;;;;;;16.90;53.60;;;;;;5004850;28;42831;-82
2023/12/16 03:21:16;;;;;;;;;;;16.90;53.80;;;;;;5004606;28;43723;-80
2023/12/16 03:23:42;;;;;;;;;;;17.10;53.10;;;;;;5004262;28;42929;-80
2023/12/16 03:26:07;;;;;;;;;;;16.90;53.10;;;;;;5003921;28;42962;-79
2023/12/16 03:28:33;;;;;;;;;;;17.00;53.10;;;;;;5004278;28;43363;-80
2023/12/16 03:30:58;;;;;;;;;;;16.90;53.10;;;;;;5003865;28;42884;-80
2023/12/16 03:33:24;;;;;;;;;;;16.90;53.70;;;;;;5004309;28;43061;-80
2023/12/16 03:35:50;;;;;;;;;;;16.80;53.60;;;;;;4986450;28;42997;-81
2023/12/16 03:38:15;;;;;;;;;;;12.70;50.90;;;;;;5003882;28;42979;-80
2023/12/16 03:40:41;;;;;;;;;;;16.90;53.70;;;;;;5003693;28;43002;-80
2023/12/16 03:43:06;;;;;;;;;;;16.90;53.10;;;;;;4986460;28;42972;-80
2023/12/16 03:45:32;;;;;;;;;;;17.00;53.10;;;;;;5005668;28;43841;-80
2023/12/16 03:47:57;;;;;;;;;;;16.80;53.60;;;;;;5007246;28;42948;-79
2023/12/16 03:50:23;;;;;;;;;;;16.90;53.70;;;;;;5022929;28;43163;-79
2023/12/16 03:52:48;;;;;;;;;;;16.90;53.70;;;;;;5027168;28;42746;-79
2023/12/16 03:55:14;;;;;;;;;;;16.90;53.00;;;;;;5009072;28;43565;-80
2023/12/16 03:57:39;;;;;;;;;;;17.00;53.70;;;;;;5026854;28;42929;-80
2023/12/16 04:00:05;;;;;;;;;;;16.90;53.00;;;;;;5026839;28;43015;-80
2023/12/16 04:02:31;;;;;;;;;;;16.80;53.30;;;;;;5026887;28;43480;-79
2023/12/16 04:04:56;;;;;;;;;;;17.00;53.10;;;;;;5026497;28;42941;-80
2023/12/16 04:07:22;;;;;;;;;;;16.80;53.00;;;;;;5026747;28;42991;-80
2023/12/16 04:09:48;;;;;;;;;;;16.90;53.00;;;;;;5026375;28;43758;-80
2023/12/16 04:12:14;;;;;;;;;;;16.80;53.00;;;;;;5026272;28;43246;-80
2023/12/16 04:14:39;;;;;;;;;;;16.90;53.60;;;;;;5026781;28;43272;-80
2023/12/16 04:17:05;;;;;;;;;;;16.90;53.70;;;;;;5026728;28;42830;-80
2023/12/16 04:19:31;;;;;;;;;;;16.90;53.50;;;;;;5008260;28;44121;-80
2023/12/16 04:21:56;;;;;;;;;;;16.90;53.10;;;;;;5026935;28;43029;-80
2023/12/16 04:24:22;;;;;;;;;;;16.90;53.20;;;;;;5026699;28;42927;-80
2023/12/16 04:26:47;;;;;;;;;;;16.90;53.10;;;;;;5026835;28;42794;-79
2023/12/16 04:29:13;;;;;;;;;;;16.90;53.10;;;;;;5026409;28;43438;-80
2023/12/16 04:31:40;;;;;;;;;;;16.70;53.60;;;;;;5026410;28;43076;-80
2023/12/16 04:34:06;;;;;;;;;;;16.80;53.60;;;;;;5024356;28;43853;-79
2023/12/16 04:36:31;;;;;;;;;;;16.80;53.70;;;;;;5026540;28;42940;-80
2023/12/16 04:38:57;;;;;;;;;;;16.80;53.20;;;;;;5026922;28;43080;-80
2023/12/16 04:41:22;;;;;;;;;;;16.90;53.80;;;;;;5027064;28;42981;-80
2023/12/16 04:43:48;;;;;;;;;;;16.80;53.70;;;;;;5026536;28;43467;-80
2023/12/16 04:46:17;;;;;;;;;;;16.90;53.20;;;;;;5026298;28;42893;-80
2023/12/16 04:48:43;;;;;;;;;;;17.10;53.70;;;;;;5025518;28;43001;-80
2023/12/16 04:51:08;;;;;;;;;;;16.80;53.70;;;;;;5025901;28;42997;-80
2023/12/16 04:53:34;;;;;;;;;;;16.80;53.20;;;;;;5026423;28;43352;-80
2023/12/16 04:56:00;;;;;;;;;;;16.80;53.20;;;;;;5026699;28;42854;-80
2023/12/16 04:58:26;;;;;;;;;;;16.90;53.20;;;;;;5025794;28;42847;-81
2023/12/16 05:00:51;;;;;;;;;;;16.80;53.70;;;;;;5026517;28;42879;-80
2023/12/16 05:03:17;;;;;;;;;;;16.80;53.20;;;;;;5026298;28;42827;-80
2023/12/16 05:05:42;;;;;;;;;;;16.70;53.70;;;;;;5025969;28;42984;-80
2023/12/16 05:08:08;;;;;;;;;;;16.90;53.90;;;;;;5026097;28;43028;-80
2023/12/16 05:10:34;;;;;;;;;;;16.80;53.70;;;;;;5025851;28;42973;-80
2023/12/16 05:12:59;;;;;;;;;;;16.90;53.30;;;;;;5025496;28;42858;-81
2023/12/16 05:15:25;;;;;;;;;;;16.90;53.40;;;;;;5025960;28;43126;-84
2023/12/16 05:17:50;;;;;;;;;;;16.60;53.10;;;;;;5008067;28;44562;-83
2023/12/16 05:20:16;;;;;;;;;;;16.80;53.80;;;;;;5025988;28;42941;-85
2023/12/16 05:22:42;;;;;;;;;;;16.80;53.20;;;;;;5026285;28;43501;-82
2023/12/16 05:25:08;;;;;;;;;;;16.70;53.70;;;;;;5026356;28;42802;-84
2023/12/16 05:27:34;;;;;;;;;;;16.80;53.20;;;;;;5033017;28;43064;-80
2023/12/16 05:30:00;;;;;;;;;;;16.80;53.20;;;;;;5026956;28;42858;-80
2023/12/16 05:32:26;;;;;;;;;;;16.90;53.20;;;;;;5025625;28;42834;-80
2023/12/16 05:34:51;;;;;;;;;;;16.80;53.10;;;;;;5024218;28;42885;-80
2023/12/16 05:37:17;;;;;;;;;;;16.80;53.80;;;;;;5025727;28;43631;-80
2023/12/16 05:39:42;;;;;;;;;;;16.70;53.60;;;;;;5025582;28;43056;-80
2023/12/16 05:42:09;;;;;;;;;;;16.80;53.20;;;;;;5025400;28;43571;-80
2023/12/16 05:44:35;;;;;;;;;;;16.70;53.10;;;;;;5008215;28;43085;-80
2023/12/16 05:47:00;;;;;;;;;;;18.00;53.70;;;;;;5025616;28;43091;-81
2023/12/16 05:49:26;;;;;;;;;;;16.90;53.30;;;;;;5025685;28;43033;-80
2023/12/16 05:51:51;;;;;;;;;;;16.90;53.20;;;;;;5025215;28;43044;-81
2023/12/16 05:54:17;;;;;;;;;;;16.80;53.70;;;;;;5023245;28;43071;-80
2023/12/16 05:56:43;;;;;;;;;;;16.80;53.70;;;;;;5024840;28;43745;-80
2023/12/16 05:59:08;;;;;;;;;;;16.80;53.20;;;;;;5025917;28;42806;-80
2023/12/16 06:01:34;;;;;;;;;;;16.70;53.80;;;;;;5024341;28;43984;-80
2023/12/16 06:03:59;;;;;;;;;;;16.70;53.70;;;;;;5023179;28;43052;-80
2023/12/16 06:06:25;;;;;;;;;;;16.80;53.20;;;;;;5025184;28;43722;-80
2023/12/16 06:08:51;;;;;;;;;;;16.70;53.10;;;;;;5024206;28;43104;-80
2023/12/16 06:11:16;;;;;;;;;;;16.70;53.10;;;;;;5025199;28;42957;-81
2023/12/16 06:13:42;;;;;;;;;;;16.80;53.20;;;;;;5024824;28;42981;-81
2023/12/16 06:16:07;;;;;;;;;;;16.80;53.80;;;;;;5024144;28;43200;-80
2023/12/16 06:18:36;;;;;;;;;;;16.90;53.20;;;;;;5025389;28;42973;-81
2023/12/16 06:21:01;;;;;;;;;;;16.80;53.20;;;;;;5025245;28;43780;-81
2023/12/16 06:23:30;;;;;;;;;;;16.70;53.70;;;;;;5025374;28;42908;-89
2023/12/16 06:25:55;;;;;;;;;;;16.80;53.10;;;;;;5007287;28;44719;-85
2023/12/16 06:28:21;;;;;;;;;;;16.70;53.10;;;;;;5024735;28;42790;-80
2023/12/16 06:30:46;;;;;;;;;;;16.70;53.80;;;;;;5024521;28;43938;-80
2023/12/16 06:33:12;;;;;;;;;;;16.90;53.30;;;;;;5025194;28;42835;-80
2023/12/16 06:35:37;;;;;;;;;;;16.70;53.60;;;;;;5024871;28;42888;-83
2023/12/16 06:38:03;;;;;;;;;;;16.70;53.70;;;;;;5023969;28;42996;-84
2023/12/16 06:40:28;;;;;;;;;;;16.70;53.20;;;;;;5024494;28;43651;-82
2023/12/16 06:42:54;;;;;;;;;;;16.60;53.20;;;;;;5024738;28;42979;-81
2023/12/16 06:45:20;;;;;;;;;;;16.80;53.30;;;;;;5024531;28;42949;-80
2023/12/16 06:47:45;;;;;;;;;;;16.80;53.30;;;;;;5024245;28;43026;-80
2023/12/16 06:50:11;;;;;;;;;;;16.70;53.70;;;;;;5024029;28;43014;-82
2023/12/16 06:52:36;;;;;;;;;;;16.70;53.20;;;;;;5024155;28;43033;-80
2023/12/16 06:55:02;;;;;;;;;;;16.70;53.20;;;;;;5024350;28;43604;-81
2023/12/16 06:57:27;;;;;;;;;;;16.80;53.20;;;;;;5006506;28;42991;-81
2023/12/16 06:59:53;;;;;;;;;;;16.70;52.80;;;;;;5006158;28;44465;-82
2023/12/16 07:02:19;;;;;;;;;;;16.70;52.80;;;;;;5006418;28;42772;-87
2023/12/16 07:04:45;;;;;;;;;;;16.90;52.90;;;;;;5023913;28;42823;-85
2023/12/16 07:07:10;;;;;;;;;;;16.90;52.90;;;;;;5019874;28;43252;-83
2023/12/16 07:09:36;;;;;;;;;;;16.70;52.80;;;;;;4997500;28;44601;-82
2023/12/16 07:12:02;;;;;;;;;;;16.60;52.70;;;;;;4996454;28;43000;-84
2023/12/16 07:14:28;;;;;;;;;;;16.70;52.70;;;;;;4995736;28;45072;-88
2023/12/16 07:16:55;;;;;;;;;;;16.80;52.90;;;;;;4997557;28;44026;-83
2023/12/16 07:19:20;;;;;;;;;;;16.70;52.90;;;;;;5014304;28;43531;-85
2023/12/16 07:21:49;;;;;;;;;;;17.00;53.10;;;;;;5022060;28;43022;-88
2023/12/16 07:24:14;;;;;;;;;;;16.80;53.10;;;;;;5002680;28;44168;-86
2023/12/16 07:26:40;;;;;;;;;;;16.80;52.90;;;;;;5017969;28;43034;-82
2023/12/16 07:29:05;;;;;;;;;;;16.90;53.10;;;;;;5015890;28;43526;-87
2023/12/16 07:31:31;;;;;;;;;;;16.70;53.00;;;;;;5017803;28;43149;-81
2023/12/16 07:33:56;;;;;;;;;;;16.60;53.00;;;;;;5012713;28;43325;-86
2023/12/16 07:36:22;;;;;;;;;;;16.60;53.50;;;;;;5017159;28;42998;-83
2023/12/16 07:38:47;;;;;;;;;;;16.70;53.10;;;;;;5016833;28;42882;-80
2023/12/16 07:41:13;;;;;;;;;;;16.60;53.10;;;;;;5016879;28;43087;-83
2023/12/16 07:43:39;;;;;;;;;;;16.70;53.10;;;;;;5022234;28;43061;-81
2023/12/16 07:46:05;;;;;;;;;;;16.70;53.20;;;;;;4998460;28;43212;-80
2023/12/16 07:48:30;;;;;;;;;;;16.70;53.20;;;;;;5003275;28;44525;-80
2023/12/16 07:50:56;;;;;;;;;;;16.60;53.20;;;;;;5015355;28;42876;-81
2023/12/16 07:53:21;;;;;;;;;;;16.60;52.30;;;;;;5024603;28;42948;-87
2023/12/16 07:55:48;;;;;;;;;;;16.60;50.80;;;;;;5015415;28;42985;-84
2023/12/16 07:58:17;;;;;;;;;;;16.60;49.70;;;;;;5019938;28;43477;-86
2023/12/16 08:00:43;;;;;;;;;;;16.60;48.40;;;;;;5022429;28;43050;-89
2023/12/16 08:03:08;;;;;;;;;;;16.70;49.80;;;;;;5020475;28;43052;-89
2023/12/16 08:05:34;;;;;;;;;;;16.70;49.10;;;;;;5000186;28;42896;-88
2023/12/16 08:07:59;;;;;;;;;;;16.60;49.10;;;;;;5015682;28;43045;-87
2023/12/16 08:10:25;;;;;;;;;;;16.70;48.90;;;;;;4998412;28;43179;-87
2023/12/16 08:12:54;;;;;;;;;;;16.60;48.00;;;;;;5015987;28;42972;-85
2023/12/16 08:15:23;;;;;;;;;;;16.50;47.50;;;;;;5024447;28;43012;-86
2023/12/16 08:17:48;;;;;;;;;;;16.50;46.80;;;;;;5000046;28;45455;-86
2023/12/16 08:20:14;;;;;;;;;;;16.60;46.90;;;;;;5015836;28;42865;-86
2023/12/16 08:22:40;;;;;;;;;;;16.40;46.70;;;;;;5016741;28;43652;-85
2023/12/16 08:25:05;;;;;;;;;;;16.40;46.90;;;;;;5011864;28;43236;-85
2023/12/16 08:27:31;;;;;;;;;;;16.40;47.00;;;;;;5017039;28;42938;-86
2023/12/16 08:29:56;;;;;;;;;;;16.30;46.50;;;;;;5015148;28;42895;-86
2023/12/16 08:32:22;;;;;;;;;;;16.50;46.60;;;;;;5015014;28;43723;-85
2023/12/16 08:34:47;;;;;;;;;;;16.40;46.50;;;;;;5017560;28;42976;-86
2023/12/16 08:37:13;;;;;;;;;;;;;;;;;;5016584;28;43825;-85
2023/12/16 08:39:42;;;;;;;;;;;16.30;46.90;;;;;;5015853;28;43064;-89
2023/12/16 08:42:07;;;;;;;;;;;16.30;47.10;;;;;;5014963;28;43166;-88
2023/12/16 08:44:34;;;;;;;;;;;16.20;47.00;;;;;;5019698;28;42960;-88
2023/12/16 08:47:00;;;;;;;;;;;16.50;47.20;;;;;;5024452;28;44979;-89
2023/12/16 08:49:25;;;;;;;;;;;16.40;47.10;;;;;;5025924;28;42884;-88
2023/12/16 08:51:52;;;;;;;;;;;16.50;46.80;;;;;;5025812;28;43786;-88
2023/12/16 08:54:17;;;;;;;;;;;17.00;47.20;;;;;;5008185;28;43070;-88
2023/12/16 08:56:46;;;;;;;;;;;16.40;46.90;;;;;;5026210;28;42981;-88
2023/12/16 08:59:18;;;;;;;;;;;;;;;;;;5026250;28;42750;-89
2023/12/16 09:01:44;;;;;;;;;;;16.40;47.00;;;;;;5024743;28;43681;-89
2023/12/16 09:04:09;;;;;;;;;;;16.40;46.90;;;;;;5022239;28;42871;-88
2023/12/16 09:06:41;;;;;;;;;;;16.40;46.80;;;;;;5016144;28;43009;-88
2023/12/16 09:09:07;;;;;;;;;;;16.40;46.70;;;;;;5020414;28;43063;-89
2023/12/16 09:11:32;;;;;;;;;;;16.40;46.80;;;;;;5014003;28;42922;-88
2023/12/16 09:13:58;;;;;;;;;;;16.30;46.60;;;;;;4999706;28;43108;-88
2023/12/16 09:16:23;;;;;;;;;;;16.40;46.90;;;;;;4977050;28;43011;-88
2023/12/16 09:18:49;;;;;;;;;;;16.30;47.30;;;;;;4977154;28;42798;-90
2023/12/16 09:21:15;;;;;;;;;;;16.40;47.30;;;;;;4984273;28;42845;-90
2023/12/16 09:23:40;;;;;;;;;;;16.40;47.60;;;;;;4986385;28;42875;-89
2023/12/16 09:26:26;;;;;;;;;;;16.50;47.40;;;;;;4986458;28;43430;-90
2023/12/16 09:29:05;;;;;;;;;;;16.50;47.30;;;;;;4985376;28;42930;-90
2023/12/16 09:31:34;;;;;;;;;;;16.40;47.30;;;;;;4967746;28;44025;-90
2023/12/16 09:34:07;;;;;;;;;;;16.50;47.10;;;;;;4968886;28;42987;-89
2023/12/16 09:36:33;;;;;;;;;;;16.50;47.20;;;;;;4986079;28;43592;-89
2023/12/16 09:38:59;;;;;;;;;;;16.50;47.20;;;;;;4984675;28;43450;-90
2023/12/16 09:41:25;;;;;;;;;;;16.30;47.00;;;;;;4992961;28;42979;-85
2023/12/16 09:43:54;;;;;;;;;;;16.50;47.30;;;;;;4999575;28;43328;-85
2023/12/16 09:46:20;;;;;;;;;;;16.40;47.30;;;;;;4977069;28;43579;-86
2023/12/16 09:48:46;;;;;;;;;;;16.30;47.60;;;;;;4995128;28;42993;-85
2023/12/16 09:51:14;;;;;;;;;;;16.60;48.20;;;;;;4998196;28;42985;-88
2023/12/16 09:53:40;;;;;;;;;;;;;;;;;;4997775;28;42922;-89
2023/12/16 09:56:06;;;;;;;;;;;16.50;48.80;;;;;;5002838;28;42905;-81
2023/12/16 09:58:33;;;;;;;;;;;16.50;49.00;;;;;;5007872;28;42930;-79
2023/12/16 10:00:59;;;;;;;;;;;16.50;49.70;;;;;;5004949;28;43995;-79
2023/12/16 10:03:24;;;;;;;;;;;16.40;49.90;;;;;;5005880;28;42956;-79
2023/12/16 10:05:50;;;;;;;;;;;16.50;49.40;;;;;;5006007;28;42934;-78
2023/12/16 10:08:15;;;;;;;;;;;16.70;49.90;;;;;;5005526;28;42923;-79
2023/12/16 10:10:42;;;;;;;;;;;16.60;50.40;;;;;;5005376;28;42966;-79
2023/12/16 10:13:08;;;;;;;;;;;16.60;50.50;;;;;;4995687;28;43001;-79
2023/12/16 10:15:34;;;;;;;;;;;16.60;49.80;;;;;;5024835;28;43480;-79
2023/12/16 10:18:00;;;;;;;;;;;16.70;50.10;;;;;;5025120;28;43645;-79
2023/12/16 10:20:25;;;;;;;;;;;16.60;50.50;;;;;;5024048;28;43502;-79
2023/12/16 10:22:52;;;;;;;;;;;16.70;50.10;;;;;;5024888;28;42949;-79
2023/12/16 10:25:18;;;;;;;;;;;16.70;50.60;;;;;;5024783;28;43591;-79
2023/12/16 10:27:44;;;;;;;;;;;16.70;50.80;;;;;;5024558;28;43016;-79
2023/12/16 10:30:10;;;;;;;;;;;16.70;50.80;;;;;;5020778;28;43376;-79
2023/12/16 10:32:38;;;;;;;;;;;16.70;50.70;;;;;;5020881;28;43009;-79
2023/12/16 10:35:05;;;;;;;;;;;16.70;50.80;;;;;;5015662;28;43086;-79
2023/12/16 10:37:30;;;;;;;;;;;16.70;51.40;;;;;;5012623;28;42965;-82
2023/12/16 10:39:56;;;;;;;;;;;16.70;51.10;;;;;;5015693;28;43008;-78
2023/12/16 10:42:21;;;;;;;;;;;16.70;51.20;;;;;;5014973;28;43053;-78
2023/12/16 10:44:49;;;;;;;;;;;16.90;50.70;;;;;;5021419;28;42953;-79
2023/12/16 10:47:18;;;;;;;;;;;16.80;50.60;;;;;;5008988;28;43028;-78
2023/12/16 10:49:47;;;;;;;;;;;16.60;51.10;;;;;;5025664;28;42898;-79
2023/12/16 10:52:17;;;;;;;;;;;16.80;51.30;;;;;;5025334;28;42995;-83
2023/12/16 10:54:51;;;;;;;;;;;16.90;51.10;;;;;;5024048;28;43144;-79
2023/12/16 10:57:21;;;;;;;;;;;16.80;51.20;;;;;;5027584;28;43082;-78
2023/12/16 10:59:54;;;;;;;;;;;16.80;51.60;;;;;;5025527;28;43002;-80
2023/12/16 11:02:23;;;;;;;;;;;16.80;51.60;;;;;;5004682;28;43077;-78
2023/12/16 11:04:54;;;;;;;;;;;16.80;51.20;;;;;;5019530;28;43631;-79
2023/12/16 11:07:22;;;;;;;;;;;16.80;51.40;;;;;;5020194;28;42917;-80
2023/12/16 11:09:48;;;;;;;;;;;16.90;52.10;;;;;;5004256;28;44614;-79
2023/12/16 11:12:14;;;;;;;;;;;16.90;51.40;;;;;;5018716;28;42888;-78
2023/12/16 11:14:40;;;;;;;;;;;16.80;51.50;;;;;;5019645;28;43033;-79
2023/12/16 11:17:08;;;;;;;;;;;16.90;51.60;;;;;;5017023;28;43120;-78
2023/12/16 11:19:55;;;;;;;;;;;16.80;51.70;;;;;;5026030;28;43721;-87
2023/12/16 11:22:22;;;;;;;;;;;17.00;51.50;;;;;;5018703;28;42748;-88
2023/12/16 11:24:50;;;;;;;;;;;17.00;51.50;;;;;;5018981;28;43605;-88
2023/12/16 11:27:15;;;;;;;;;;;17.10;51.70;;;;;;5023689;28;42968;-83
2023/12/16 11:29:42;;;;;;;;;;;17.10;52.00;;;;;;5006898;28;43783;-82
2023/12/16 11:32:27;;;;;;;;;;;17.00;51.80;;;;;;5038738;28;43067;-82
2023/12/16 11:34:53;;;;;;;;;;;17.00;52.20;;;;;;5020978;28;45337;-82
2023/12/16 11:37:41;;;;;;;;;;;16.90;52.10;;;;;;5028575;28;42984;-81
2023/12/16 11:40:09;;;;;;;;;;;17.00;52.00;;;;;;5022399;28;43454;-80
2023/12/16 11:42:43;;;;;;;;;;;17.10;52.10;;;;;;5023851;28;42946;-80
2023/12/16 11:45:09;;;;;;;;;;;17.00;52.20;;;;;;5027380;28;43705;-80
2023/12/16 11:47:34;;;;;;;;;;;17.00;52.20;;;;;;5023889;28;42896;-81
2023/12/16 11:50:00;;;;;;;;;;;17.00;52.30;;;;;;5017879;28;43856;-82
2023/12/16 11:52:27;;;;;;;;;;;17.00;52.40;;;;;;5016777;28;43047;-81
2023/12/16 11:54:56;;;;;;;;;;;17.00;52.40;;;;;;5017762;28;43027;-82
2023/12/16 11:57:22;;;;;;;;;;;16.90;52.40;;;;;;5000920;28;43298;-82
2023/12/16 11:59:49;;;;;;;;;;;17.00;53.00;;;;;;5015816;28;43401;-80
2023/12/16 12:02:14;;;;;;;;;;;17.00;52.40;;;;;;5017776;28;43158;-79
2023/12/16 12:04:40;;;;;;;;;;;16.90;52.40;;;;;;5010745;28;43080;-80
2023/12/16 12:07:06;;;;;;;;;;;17.00;53.10;;;;;;5011579;28;42839;-80
2023/12/16 12:09:31;;;;;;;;;;;17.00;52.50;;;;;;5016198;28;44509;-79
2023/12/16 12:11:57;;;;;;;;;;;17.00;52.50;;;;;;5048041;28;42939;-80
2023/12/16 12:14:24;;;;;;;;;;;17.10;52.50;;;;;;5056702;28;42834;-79
2023/12/16 12:16:50;;;;;;;;;;;17.10;52.50;;;;;;5048333;28;42936;-79
2023/12/16 12:19:16;;;;;;;;;;;17.10;52.50;;;;;;5044664;28;43434;-78
2023/12/16 12:21:42;;;;;;;;;;;16.80;52.40;;;;;;5034410;28;42929;-79
2023/12/16 12:24:07;;;;;;;;;;;17.00;53.00;;;;;;5017319;28;43004;-84
2023/12/16 12:26:33;;;;;;;;;;;17.00;52.60;;;;;;5016974;28;43029;-80
2023/12/16 12:28:59;;;;;;;;;;;17.10;52.60;;;;;;4997321;28;45967;-79
2023/12/16 12:31:25;;;;;;;;;;;17.10;53.10;;;;;;5015676;28;43042;-79
2023/12/16 12:33:51;;;;;;;;;;;17.00;53.10;;;;;;5013460;28;43647;-79
2023/12/16 12:36:17;;;;;;;;;;;17.00;52.50;;;;;;5005112;28;42957;-81
2023/12/16 12:38:51;;;;;;;;;;;17.00;53.20;;;;;;5011144;28;42963;-81
2023/12/16 12:41:17;;;;;;;;;;;17.00;52.60;;;;;;5024165;28;42895;-81
2023/12/16 12:43:42;;;;;;;;;;;17.00;53.30;;;;;;5020880;28;43498;-80
2023/12/16 12:46:10;;;;;;;;;;;17.00;52.60;;;;;;5016651;28;42915;-81
2023/12/16 12:48:36;;;;;;;;;;;17.00;53.10;;;;;;5022451;28;42932;-81
2023/12/16 12:51:03;;;;;;;;;;;17.00;53.20;;;;;;5022610;28;42874;-81
2023/12/16 12:53:29;;;;;;;;;;;16.90;53.10;;;;;;5045945;28;43819;-80
2023/12/16 12:55:54;;;;;;;;;;;17.10;52.70;;;;;;5046591;28;42955;-84
2023/12/16 12:58:22;;;;;;;;;;;17.00;52.60;;;;;;5033396;28;43616;-81
2023/12/16 13:00:49;;;;;;;;;;;17.10;52.70;;;;;;5021453;28;43007;-81
2023/12/16 13:03:15;;;;;;;;;;;17.00;53.30;;;;;;5022106;28;43078;-81
2023/12/16 13:05:41;;;;;;;;;;;16.90;52.60;;;;;;5024448;28;43061;-81
2023/12/16 13:08:10;;;;;;;;;;;17.00;52.60;;;;;;5023753;28;43559;-82
2023/12/16 13:10:38;;;;;;;;;;;16.90;53.10;;;;;;5024077;28;42906;-82
2023/12/16 13:13:04;;;;;;;;;;;16.90;52.50;;;;;;5023837;28;42878;-81
2023/12/16 13:15:29;;;;;;;;;;;17.00;52.60;;;;;;5024297;28;43012;-81
2023/12/16 13:17:55;;;;;;;;;;;17.00;52.50;;;;;;5023855;28;43404;-81
2023/12/16 13:20:20;;;;;;;;;;;16.90;52.50;;;;;;5025963;28;42905;-81
2023/12/16 13:22:46;;;;;;;;;;;17.20;53.20;;;;;;5026011;28;43783;-81
2023/12/16 13:25:12;;;;;;;;;;;16.90;52.40;;;;;;5026396;28;42775;-81
2023/12/16 13:27:37;;;;;;;;;;;17.00;52.50;;;;;;5026173;28;42785;-81
2023/12/16 13:30:04;;;;;;;;;;;17.00;53.00;;;;;;5025945;28;42929;-81
2023/12/16 13:32:31;;;;;;;;;;;17.10;52.60;;;;;;5025624;28;43714;-81
2023/12/16 13:34:56;;;;;;;;;;;17.00;52.60;;;;;;5025348;28;43182;-81
2023/12/16 13:37:22;;;;;;;;;;;17.00;52.50;;;;;;5025249;28;43034;-81
2023/12/16 13:39:48;;;;;;;;;;;17.00;52.50;;;;;;5026058;28;42943;-81
2023/12/16 13:42:13;;;;;;;;;;;17.10;52.60;;;;;;5007503;28;45609;-83
2023/12/16 13:44:39;;;;;;;;;;;17.00;52.50;;;;;;5025946;28;42886;-83
2023/12/16 13:47:04;;;;;;;;;;;17.00;53.20;;;;;;5025456;28;42890;-83
2023/12/16 13:49:30;;;;;;;;;;;16.90;53.00;;;;;;5026119;28;42960;-82
2023/12/16 13:51:55;;;;;;;;;;;17.10;52.60;;;;;;5007555;28;44493;-82
2023/12/16 13:54:21;;;;;;;;;;;17.00;52.60;;;;;;5025537;28;42922;-82
2023/12/16 13:56:46;;;;;;;;;;;17.00;52.60;;;;;;5025702;28;43523;-82
2023/12/16 13:59:11;;;;;;;;;;;16.80;52.50;;;;;;5025575;28;42972;-82
2023/12/16 14:01:37;;;;;;;;;;;17.00;53.30;;;;;;5025507;28;42997;-82
2023/12/16 14:04:03;;;;;;;;;;;16.90;52.50;;;;;;5025316;28;42863;-82
2023/12/16 14:06:29;;;;;;;;;;;16.90;52.50;;;;;;5024850;28;42891;-82
2023/12/16 14:08:54;;;;;;;;;;;17.00;52.50;;;;;;5025033;28;42932;-82
2023/12/16 14:11:20;;;;;;;;;;;16.90;53.30;;;;;;5024750;28;42932;-82
2023/12/16 14:13:45;;;;;;;;;;;16.90;53.10;;;;;;5007237;28;43369;-82